Time;durP1;ratioP1;P1;durP2;ratioP2;P2;SDS_P1;SDS_P2;PMS_P1;PMS_P2;Temp;Humidity;BMP_temperature;BMP_pressure;BME280_temperature;BME280_humidity;BME280_pressure;Samples;Min_cycle;Max_cycle;Signal;HPM_P1;HPM_P2
2023/05/12 00:02:21;;;;;;;10.25;2.47;;;;;;;14.02;64.47;101135.09;5026471;28;20046;-70
2023/05/12 00:04:48;;;;;;;10.52;2.50;;;;;;;13.95;65.39;101129.22;5021578;28;20041;-70
2023/05/12 00:07:16;;;;;;;8.63;2.15;;;;;;;14.14;63.91;101128.91;5017712;28;20583;-70
2023/05/12 00:09:43;;;;;;;12.23;2.80;;;;;;;13.73;65.48;101140.47;5021528;28;20053;-70
2023/05/12 00:12:10;;;;;;;8.50;2.10;;;;;;;13.81;65.04;101139.63;5018746;28;20057;-70
2023/05/12 00:14:38;;;;;;;8.57;2.38;;;;;;;13.70;64.82;101137.53;5021166;28;20046;-71
2023/05/12 00:17:05;;;;;;;10.02;2.15;;;;;;;13.47;64.55;101137.66;4998683;28;20060;-70
2023/05/12 00:19:34;;;;;;;10.73;2.47;;;;;;;13.43;65.49;101130.31;5004417;28;20057;-71
2023/05/12 00:22:01;;;;;;;8.02;2.10;;;;;;;13.46;65.73;101135.19;5013716;28;20052;-70
2023/05/12 00:24:29;;;;;;;9.82;2.67;;;;;;;13.53;65.34;101139.13;5008124;28;20445;-69
2023/05/12 00:26:56;;;;;;;12.10;2.42;;;;;;;13.84;64.81;101138.19;4994182;28;20061;-70
2023/05/12 00:29:24;;;;;;;12.20;3.03;;;;;;;13.88;64.66;101125.34;5011093;28;20048;-71
2023/05/12 00:31:51;;;;;;;12.48;2.33;;;;;;;14.03;65.04;101124.84;5026421;28;20045;-70
2023/05/12 00:34:18;;;;;;;13.05;2.70;;;;;;;14.03;65.42;101130.38;5027265;28;20386;-70
2023/05/12 00:36:45;;;;;;;9.38;2.95;;;;;;;13.77;67.06;101121.25;5022529;28;20449;-70
2023/05/12 00:39:13;;;;;;;9.13;2.55;;;;;;;13.60;67.99;101133.09;5016861;28;20049;-70
2023/05/12 00:41:40;;;;;;;11.27;3.28;;;;;;;13.92;67.80;101132.66;5004664;28;20409;-71
2023/05/12 00:44:09;;;;;;;9.32;2.55;;;;;;;13.98;67.95;101127.78;5007679;28;20045;-70
2023/05/12 00:46:38;;;;;;;15.65;2.97;;;;;;;13.84;68.33;101139.00;5029831;28;20045;-69
2023/05/12 00:49:05;;;;;;;8.13;3.05;;;;;;;13.92;68.44;101126.28;5004812;28;20059;-71
2023/05/12 00:51:33;;;;;;;12.45;2.92;;;;;;;13.72;69.09;101132.47;5012845;28;20064;-70
2023/05/12 00:54:02;;;;;;;11.73;3.20;;;;;;;13.69;69.50;101133.09;5030601;28;20063;-69
2023/05/12 00:56:34;;;;;;;8.90;3.67;;;;;;;13.60;69.10;101129.53;5011301;28;20053;-70
2023/05/12 00:59:02;;;;;;;11.27;3.13;;;;;;;13.35;70.46;101129.13;5029499;28;20429;-70
2023/05/12 01:01:30;;;;;;;10.65;2.40;;;;;;;13.19;71.01;101127.16;5013736;28;20779;-70
2023/05/12 01:03:58;;;;;;;12.63;3.05;;;;;;;13.25;71.11;101123.91;4992713;28;20053;-70
2023/05/12 01:06:33;;;;;;;9.98;2.78;;;;;;;13.26;70.42;101131.09;4978803;28;20049;-69
2023/05/12 01:09:01;;;;;;;9.80;2.95;;;;;;;13.13;70.32;101125.66;5026004;28;20046;-71
2023/05/12 01:11:28;;;;;;;12.05;2.92;;;;;;;13.37;69.99;101126.88;4994294;28;20048;-70
2023/05/12 01:13:55;;;;;;;11.77;2.55;;;;;;;13.30;69.64;101132.06;5027507;28;20058;-69
2023/05/12 01:16:26;;;;;;;11.55;2.95;;;;;;;13.14;69.57;101128.13;5005812;28;20057;-70
2023/05/12 01:18:55;;;;;;;9.30;2.63;;;;;;;13.21;69.53;101119.34;5018573;28;20053;-70
2023/05/12 01:21:22;;;;;;;14.13;3.00;;;;;;;13.10;69.53;101131.84;5021007;28;20046;-70
2023/05/12 01:23:56;;;;;;;10.45;2.50;;;;;;;12.92;70.15;101119.84;5006530;28;20051;-70
2023/05/12 01:26:25;;;;;;;11.77;2.65;;;;;;;13.26;68.96;101125.56;4999327;28;21952;-70
2023/05/12 01:28:52;;;;;;;13.77;3.00;;;;;;;13.01;68.53;101133.72;5023117;28;20049;-70
2023/05/12 01:31:20;;;;;;;10.65;2.45;;;;;;;12.97;69.56;101124.44;5002490;28;20076;-70
2023/05/12 01:33:48;;;;;;;10.70;2.80;;;;;;;13.26;68.89;101133.03;5014617;28;20049;-70
2023/05/12 01:36:15;;;;;;;11.90;2.63;;;;;;;13.19;68.51;101132.69;5016933;28;20701;-71
2023/05/12 01:38:43;;;;;;;9.80;2.28;;;;;;;13.02;69.39;101127.91;5006041;28;20057;-70
2023/05/12 01:41:10;;;;;;;8.88;2.50;;;;;;;12.63;70.27;101141.69;5023133;28;20060;-70
2023/05/12 01:43:37;;;;;;;12.10;3.20;;;;;;;12.60;71.21;101134.03;4994757;28;20058;-70
2023/05/12 01:46:05;;;;;;;11.90;2.90;;;;;;;12.75;70.47;101133.59;5027644;28;20038;-70
2023/05/12 01:48:32;;;;;;;12.20;3.35;;;;;;;12.70;70.76;101122.69;4994457;28;20049;-70
2023/05/12 01:51:00;;;;;;;11.95;2.70;;;;;;;12.48;71.54;101124.69;5001150;28;20045;-70
2023/05/12 01:53:27;;;;;;;8.77;2.15;;;;;;;12.49;71.91;101124.38;5009640;28;20053;-69
2023/05/12 01:55:55;;;;;;;10.65;2.45;;;;;;;12.50;71.95;101119.66;5013199;28;20053;-70
2023/05/12 01:58:23;;;;;;;11.40;3.20;;;;;;;12.63;72.12;101121.50;5026651;28;20057;-69
2023/05/12 02:00:51;;;;;;;11.20;2.95;;;;;;;12.61;71.74;101115.47;5000754;28;20042;-69
2023/05/12 02:03:18;;;;;;;12.77;3.10;;;;;;;12.48;72.63;101124.69;5021490;28;20045;-71
2023/05/12 02:05:46;;;;;;;10.30;2.72;;;;;;;12.55;72.63;101117.59;5025347;28;20129;-70
2023/05/12 02:08:13;;;;;;;12.25;2.58;;;;;;;12.38;72.85;101120.22;5027891;28;20492;-70
2023/05/12 02:10:40;;;;;;;9.15;2.72;;;;;;;12.32;73.69;101132.56;5016942;28;20520;-70
2023/05/12 02:13:08;;;;;;;10.98;3.00;;;;;;;12.43;73.96;101125.63;5008302;28;20060;-70
2023/05/12 02:15:35;;;;;;;15.73;3.25;;;;;;;12.35;74.59;101129.16;5005120;28;20045;-70
2023/05/12 02:18:03;;;;;;;10.32;2.72;;;;;;;12.63;73.81;101124.28;5009114;28;20050;-69
2023/05/12 02:20:31;;;;;;;12.57;3.45;;;;;;;12.57;73.63;101120.03;5014112;28;20045;-70
2023/05/12 02:22:59;;;;;;;14.15;3.40;;;;;;;12.51;74.01;101126.81;5020601;28;20041;-70
2023/05/12 02:25:29;;;;;;;14.63;2.92;;;;;;;12.40;74.66;101134.53;4991920;28;20061;-71
2023/05/12 02:27:56;;;;;;;10.98;3.42;;;;;;;12.54;74.44;101124.22;5022362;28;20050;-70
2023/05/12 02:30:24;;;;;;;14.27;3.22;;;;;;;12.29;74.62;101125.69;5010687;28;20049;-70
2023/05/12 02:32:52;;;;;;;15.45;3.15;;;;;;;12.18;75.47;101118.81;5021105;28;20057;-70
2023/05/12 02:35:20;;;;;;;13.07;2.72;;;;;;;12.20;75.39;101124.03;5005471;28;20105;-70
2023/05/12 02:37:47;;;;;;;10.43;2.60;;;;;;;12.16;75.26;101118.31;5011925;28;20374;-70
2023/05/12 02:40:15;;;;;;;12.40;3.05;;;;;;;12.25;74.93;101119.19;5002136;28;20045;-70
2023/05/12 02:42:44;;;;;;;11.38;2.67;;;;;;;12.19;75.16;101128.72;5022659;28;20438;-70
2023/05/12 02:45:11;;;;;;;12.45;3.20;;;;;;;12.20;75.28;101122.06;4996941;28;20046;-71
2023/05/12 02:47:39;;;;;;;16.50;3.50;;;;;;;12.35;74.44;101126.38;5000396;28;20049;-70
2023/05/12 02:50:08;;;;;;;13.38;3.38;;;;;;;12.31;74.38;101126.19;5002798;28;20052;-70
2023/05/12 02:52:35;;;;;;;15.13;3.00;;;;;;;12.27;74.58;101124.41;5021803;28;20057;-70
2023/05/12 02:55:03;;;;;;;10.90;2.53;;;;;;;12.29;73.50;101131.22;4994043;28;20053;-70
2023/05/12 02:57:33;;;;;;;11.05;3.05;;;;;;;12.50;72.92;101131.50;5023606;28;20041;-70
2023/05/12 03:00:04;;;;;;;12.60;2.80;;;;;;;12.50;72.74;101128.75;5004483;28;20045;-70
2023/05/12 03:02:35;;;;;;;13.13;2.72;;;;;;;12.35;73.29;101135.50;5016716;28;20049;-69
2023/05/12 03:05:03;;;;;;;12.25;3.42;;;;;;;12.09;74.07;101133.69;5015419;28;20113;-69
2023/05/12 03:07:31;;;;;;;11.02;2.60;;;;;;;12.23;73.84;101132.50;4995326;28;20746;-70
2023/05/12 03:09:58;;;;;;;15.05;3.55;;;;;;;12.14;74.15;101125.25;5014017;28;20049;-70
2023/05/12 03:12:29;;;;;;;9.25;2.30;;;;;;;12.25;73.50;101126.66;5001593;28;20052;-70
2023/05/12 03:14:57;;;;;;;12.35;3.08;;;;;;;12.36;72.85;101126.06;4987094;28;20064;-70
2023/05/12 03:17:25;;;;;;;19.23;2.88;;;;;;;12.35;72.94;101116.16;4996664;28;20037;-70
2023/05/12 03:19:53;;;;;;;11.45;2.70;;;;;;;12.37;72.87;101122.19;5006849;28;20064;-70
2023/05/12 03:22:20;;;;;;;15.90;3.40;;;;;;;12.42;72.42;101121.22;5011897;28;20053;-71
2023/05/12 03:24:47;;;;;;;12.05;2.72;;;;;;;12.40;72.64;101123.50;5019187;28;20057;-70
2023/05/12 03:27:15;;;;;;;12.93;3.50;;;;;;;12.06;73.49;101121.34;5026594;28;20049;-70
2023/05/12 03:29:42;;;;;;;11.90;2.83;;;;;;;12.09;73.72;101119.88;4995764;28;20057;-69
2023/05/12 03:32:09;;;;;;;12.27;3.13;;;;;;;12.21;73.78;101122.88;5012578;28;20053;-70
2023/05/12 03:34:37;;;;;;;14.63;2.85;;;;;;;12.17;73.64;101117.16;4995935;28;20050;-70
2023/05/12 03:37:04;;;;;;;14.30;3.40;;;;;;;12.15;74.72;101129.69;5010748;28;20052;-70
2023/05/12 03:39:31;;;;;;;12.10;2.88;;;;;;;12.03;74.83;101116.41;5011018;28;20062;-70
2023/05/12 03:41:59;;;;;;;9.55;2.72;;;;;;;12.09;75.10;101133.69;4995680;28;20058;-70
2023/05/12 03:44:26;;;;;;;16.75;3.28;;;;;;;12.10;75.32;101121.53;5012693;28;20046;-69
2023/05/12 03:46:53;;;;;;;9.63;2.65;;;;;;;12.26;74.41;101128.28;5014004;28;20075;-69
2023/05/12 03:49:21;;;;;;;14.75;3.13;;;;;;;12.16;74.44;101121.06;4996159;28;20049;-69
2023/05/12 03:51:48;;;;;;;13.77;2.65;;;;;;;12.10;75.34;101127.03;5009017;28;20096;-70
2023/05/12 03:54:18;;;;;;;15.83;3.37;;;;;;;11.86;75.05;101126.50;5012072;28;20061;-69
2023/05/12 03:56:45;;;;;;;13.32;3.05;;;;;;;11.94;75.44;101121.03;5013723;28;20384;-70
2023/05/12 03:59:14;;;;;;;14.15;3.13;;;;;;;11.77;74.93;101123.66;5009180;28;20042;-69
2023/05/12 04:01:41;;;;;;;8.43;3.08;;;;;;;11.70;75.14;101128.00;5013566;28;20458;-69
2023/05/12 04:04:09;;;;;;;11.20;2.47;;;;;;;11.67;74.49;101128.59;5013867;28;20061;-70
2023/05/12 04:06:37;;;;;;;13.02;2.58;;;;;;;11.70;74.99;101130.75;5014203;28;20045;-70
2023/05/12 04:09:04;;;;;;;15.57;2.80;;;;;;;11.70;74.49;101128.78;4995379;28;20514;-70
2023/05/12 04:11:31;;;;;;;17.15;2.80;;;;;;;11.61;73.80;101133.38;5011300;28;20058;-69
2023/05/12 04:13:59;;;;;;;11.30;2.47;;;;;;;11.47;74.22;101127.09;5027307;28;20057;-69
2023/05/12 04:16:27;;;;;;;11.18;2.38;;;;;;;11.50;74.46;101129.22;5016911;28;20049;-69
2023/05/12 04:18:56;;;;;;;12.00;2.83;;;;;;;11.50;74.36;101125.66;5015708;28;20471;-69
2023/05/12 04:21:23;;;;;;;11.95;3.08;;;;;;;11.58;73.61;101127.66;5032337;28;20061;-69
2023/05/12 04:23:53;;;;;;;12.13;2.80;;;;;;;11.45;73.87;101126.59;4980928;28;20062;-69
2023/05/12 04:26:25;;;;;;;10.45;2.42;;;;;;;11.61;73.61;101130.63;4995808;28;20058;-69
2023/05/12 04:28:53;;;;;;;14.23;3.00;;;;;;;11.72;72.38;101122.97;4996122;28;20054;-69
2023/05/12 04:31:20;;;;;;;9.30;2.60;;;;;;;11.62;72.63;101136.97;5011572;28;20560;-69
2023/05/12 04:33:48;;;;;;;11.10;2.92;;;;;;;11.33;74.00;101129.84;5015336;28;20069;-69
2023/05/12 04:36:18;;;;;;;10.23;2.90;;;;;;;11.55;73.46;101131.88;5016612;28;20049;-70
2023/05/12 04:38:45;;;;;;;11.40;2.78;;;;;;;11.46;73.36;101133.72;4982212;28;20528;-70
2023/05/12 04:41:13;;;;;;;9.48;2.60;;;;;;;11.52;73.44;101134.44;5016518;28;20062;-71
2023/05/12 04:43:40;;;;;;;12.40;3.17;;;;;;;11.62;73.42;101148.00;5030512;28;20627;-70
2023/05/12 04:46:11;;;;;;;12.27;2.78;;;;;;;11.71;72.55;101138.72;5015420;28;20061;-69
2023/05/12 04:48:40;;;;;;;13.73;3.00;;;;;;;11.44;72.23;101140.69;5016606;28;20052;-70
2023/05/12 04:51:08;;;;;;;11.80;3.15;;;;;;;11.40;72.84;101140.50;5010524;28;20416;-69
2023/05/12 04:53:35;;;;;;;15.23;3.03;;;;;;;11.38;73.03;101138.00;5020961;28;20049;-69
2023/05/12 04:56:03;;;;;;;12.68;2.72;;;;;;;11.40;72.87;101147.94;5024661;28;20060;-70
2023/05/12 04:58:35;;;;;;;12.77;2.83;;;;;;;11.35;72.72;101148.84;4998697;28;20509;-69
2023/05/12 05:01:03;;;;;;;8.88;2.58;;;;;;;11.56;71.90;101144.53;4998195;28;20081;-69
2023/05/12 05:03:32;;;;;;;11.10;3.13;;;;;;;11.55;71.50;101148.44;5012054;28;20054;-69
2023/05/12 05:06:00;;;;;;;12.85;3.22;;;;;;;11.38;72.39;101156.53;5005368;28;20053;-69
2023/05/12 05:08:27;;;;;;;11.73;2.67;;;;;;;11.45;71.93;101153.34;5016296;28;20064;-70
2023/05/12 05:10:55;;;;;;;13.95;3.13;;;;;;;11.28;70.95;101160.31;5029710;28;20054;-70
2023/05/12 05:13:22;;;;;;;11.85;3.30;;;;;;;11.21;71.47;101168.16;5009129;28;20065;-70
2023/05/12 05:15:51;;;;;;;15.63;3.15;;;;;;;10.92;71.71;101166.81;5001212;28;20058;-69
2023/05/12 05:18:20;;;;;;;12.82;2.40;;;;;;;11.15;71.59;101166.66;5021190;28;20058;-69
2023/05/12 05:20:51;;;;;;;9.50;2.83;;;;;;;11.12;70.71;101167.25;5006550;28;20061;-69
2023/05/12 05:23:25;;;;;;;15.95;2.78;;;;;;;11.02;71.27;101170.19;5022088;28;20046;-70
2023/05/12 05:25:53;;;;;;;7.80;2.50;;;;;;;11.45;71.04;101172.66;5025752;28;20067;-70
2023/05/12 05:28:20;;;;;;;10.05;2.67;;;;;;;11.29;70.78;101175.75;4997221;28;20057;-70
2023/05/12 05:30:47;;;;;;;9.57;2.17;;;;;;;11.41;69.61;101174.38;5016253;28;20061;-69
2023/05/12 05:33:14;;;;;;;10.05;2.42;;;;;;;11.42;69.09;101167.75;5014640;28;20046;-70
2023/05/12 05:35:42;;;;;;;11.60;2.78;;;;;;;11.41;69.76;101177.16;5014247;28;20050;-69
2023/05/12 05:38:11;;;;;;;11.90;2.38;;;;;;;11.44;68.93;101176.56;5012491;28;20054;-69
2023/05/12 05:40:39;;;;;;;8.20;2.38;;;;;;;11.34;69.40;101175.63;5014727;28;20494;-70
2023/05/12 05:43:20;;;;;;;7.07;1.90;;;;;;;11.33;68.51;101173.97;4997435;28;20050;-70
2023/05/12 05:45:48;;;;;;;13.35;3.15;;;;;;;11.39;68.89;101180.22;5013294;28;20050;-71
2023/05/12 05:48:16;;;;;;;12.20;2.88;;;;;;;11.29;68.71;101172.16;5017699;28;20050;-70
2023/05/12 05:50:44;;;;;;;11.32;2.70;;;;;;;11.48;68.65;101175.63;4981928;28;20437;-70
2023/05/12 05:53:11;;;;;;;10.70;2.53;;;;;;;11.85;67.20;101174.56;5014707;28;20050;-70
2023/05/12 05:55:38;;;;;;;11.65;2.80;;;;;;;11.50;67.80;101170.63;4991434;28;20057;-70
2023/05/12 05:58:06;;;;;;;10.07;2.45;;;;;;;11.77;66.87;101180.81;5011631;28;20490;-70
2023/05/12 06:00:33;;;;;;;14.27;2.53;;;;;;;11.49;66.30;101177.22;5014627;28;20405;-69
2023/05/12 06:03:01;;;;;;;13.43;2.72;;;;;;;11.23;68.01;101178.88;4981945;28;20564;-70
2023/05/12 06:05:30;;;;;;;13.00;2.85;;;;;;;11.37;67.69;101176.94;4998250;28;20094;-70
2023/05/12 06:07:57;;;;;;;11.55;2.60;;;;;;;11.17;67.93;101177.38;4995447;28;20062;-70
2023/05/12 06:10:25;;;;;;;10.38;2.47;;;;;;;11.08;67.68;101177.28;5006153;28;20049;-70
2023/05/12 06:12:54;;;;;;;12.35;3.05;;;;;;;11.10;68.51;101177.78;5005804;28;20045;-70
2023/05/12 06:15:21;;;;;;;10.48;2.38;;;;;;;11.44;68.03;101176.56;5014729;28;20053;-70
2023/05/12 06:17:49;;;;;;;9.23;2.20;;;;;;;11.74;66.63;101168.44;5022627;28;20049;-69
2023/05/12 06:20:17;;;;;;;10.30;2.70;;;;;;;11.80;66.40;101171.91;5007129;28;20054;-70
2023/05/12 06:22:45;;;;;;;7.85;2.22;;;;;;;11.87;66.36;101177.84;5003462;28;20061;-70
2023/05/12 06:25:12;;;;;;;13.50;2.60;;;;;;;11.80;66.42;101171.91;5019172;28;20057;-71
2023/05/12 06:27:39;;;;;;;10.63;2.70;;;;;;;12.07;66.00;101177.34;5016853;28;20057;-69
2023/05/12 06:30:08;;;;;;;11.35;2.70;;;;;;;11.91;65.31;101174.13;5011475;28;20065;-68
2023/05/12 06:32:35;;;;;;;10.80;2.70;;;;;;;12.21;64.81;101176.19;4992815;28;20073;-69
2023/05/12 06:35:05;;;;;;;11.05;2.53;;;;;;;11.91;64.23;101181.59;5009274;28;20054;-70
2023/05/12 06:37:32;;;;;;;13.18;2.67;;;;;;;11.94;64.13;101173.50;4995098;28;20054;-70
2023/05/12 06:40:00;;;;;;;9.93;2.08;;;;;;;12.07;64.11;101178.16;4997452;28;20057;-71
2023/05/12 06:42:27;;;;;;;11.43;2.25;;;;;;;11.71;64.27;101190.34;5013692;28;20054;-68
2023/05/12 06:44:55;;;;;;;9.80;2.10;;;;;;;11.74;64.66;101189.69;4979412;28;20052;-70
2023/05/12 06:47:23;;;;;;;10.73;2.40;;;;;;;11.73;64.87;101188.09;5010873;28;20046;-70
2023/05/12 06:49:50;;;;;;;16.85;2.53;;;;;;;11.97;64.96;101183.13;5010703;28;20076;-71
2023/05/12 06:52:19;;;;;;;10.85;2.90;;;;;;;11.85;64.88;101189.19;5027200;28;20414;-69
2023/05/12 06:54:46;;;;;;;8.70;2.50;;;;;;;11.53;65.68;101182.97;5025213;28;20053;-70
2023/05/12 06:57:13;;;;;;;15.57;3.28;;;;;;;11.58;65.88;101182.84;5003221;28;20057;-69
2023/05/12 06:59:41;;;;;;;11.95;2.40;;;;;;;11.65;66.24;101194.31;5023356;28;20053;-69
2023/05/12 07:02:08;;;;;;;16.17;2.58;;;;;;;11.86;65.70;101192.75;4979009;28;20057;-69
2023/05/12 07:04:36;;;;;;;11.48;2.53;;;;;;;11.99;65.61;101186.38;5016513;28;20508;-70
2023/05/12 07:07:03;;;;;;;10.63;2.63;;;;;;;12.19;65.27;101185.88;4990727;28;20537;-70
2023/05/12 07:09:31;;;;;;;10.25;2.25;;;;;;;11.91;67.27;101189.88;5012379;28;20049;-69
2023/05/12 07:11:59;;;;;;;12.38;2.85;;;;;;;11.92;66.77;101189.59;5014564;28;20042;-70
2023/05/12 07:14:27;;;;;;;12.15;2.75;;;;;;;12.03;67.15;101181.88;5004829;28;20057;-69
2023/05/12 07:16:54;;;;;;;11.77;3.03;;;;;;;12.19;66.73;101180.38;4993335;28;20049;-69
2023/05/12 07:19:22;;;;;;;15.80;3.22;;;;;;;12.68;66.06;101188.53;5010954;28;20602;-69
2023/05/12 07:21:49;;;;;;;11.57;3.05;;;;;;;12.47;65.95;101170.81;5011932;28;20482;-71
2023/05/12 07:24:16;;;;;;;13.70;3.03;;;;;;;12.26;67.23;101181.56;5014990;28;20046;-69
2023/05/12 07:26:43;;;;;;;7.40;2.80;;;;;;;12.51;66.88;101182.91;5008943;28;20049;-70
2023/05/12 07:29:11;;;;;;;9.70;2.53;;;;;;;12.70;67.29;101182.69;5018041;28;20045;-70
2023/05/12 07:31:40;;;;;;;10.48;2.88;;;;;;;12.68;66.29;101171.13;5013065;28;20382;-71
2023/05/12 07:34:07;;;;;;;13.98;2.90;;;;;;;12.96;66.30;101175.34;4975793;28;20058;-69
2023/05/12 07:36:35;;;;;;;7.93;2.90;;;;;;;12.61;66.95;101181.81;5005463;28;20504;-69
2023/05/12 07:39:02;;;;;;;11.57;3.25;;;;;;;12.94;67.02;101175.66;4993494;28;20050;-71
2023/05/12 07:41:30;;;;;;;13.70;2.58;;;;;;;12.87;66.83;101169.78;5022320;28;20771;-71
2023/05/12 07:44:01;;;;;;;;;;;;;;;12.95;67.22;101171.78;5013062;28;20054;-70
2023/05/12 07:46:28;;;;;;;12.85;3.03;;;;;;;12.97;67.29;101165.94;5026379;28;19921;-69
2023/05/12 07:48:56;;;;;;;16.15;3.17;;;;;;;13.02;67.39;101169.38;5016567;28;20065;-70
2023/05/12 07:51:23;;;;;;;27.05;5.13;;;;;;;12.83;67.53;101170.75;4999053;28;20054;-70
2023/05/12 07:53:50;;;;;;;12.25;3.20;;;;;;;12.97;68.06;101163.97;5016371;28;20073;-70
2023/05/12 07:56:18;;;;;;;9.73;2.95;;;;;;;13.06;67.70;101166.78;5015673;28;20513;-71
2023/05/12 07:58:45;;;;;;;13.55;3.20;;;;;;;13.19;67.79;101166.72;5017714;28;20478;-72
2023/05/12 08:01:14;;;;;;;9.48;2.75;;;;;;;13.29;66.92;101166.41;5016224;28;20061;-72
2023/05/12 08:03:41;;;;;;;10.18;2.80;;;;;;;13.54;66.34;101168.44;5017981;28;20069;-70
2023/05/12 08:06:09;;;;;;;8.20;2.80;;;;;;;13.41;66.44;101160.25;5017160;28;20108;-70
2023/05/12 08:08:37;;;;;;;9.27;2.28;;;;;;;13.39;67.36;101166.09;5015474;28;20054;-72
2023/05/12 08:11:04;;;;;;;12.27;2.58;;;;;;;13.28;67.51;101159.25;5016501;28;20441;-72
2023/05/12 08:13:32;;;;;;;16.30;3.08;;;;;;;13.48;67.24;101168.91;4990886;28;20481;-70
2023/05/12 08:15:59;;;;;;;9.55;2.60;;;;;;;13.69;66.12;101163.56;5015139;28;20064;-71
2023/05/12 08:18:28;;;;;;;13.07;3.03;;;;;;;13.42;67.25;101176.53;5017058;28;20050;-72
2023/05/12 08:20:55;;;;;;;10.98;3.33;;;;;;;13.19;68.02;101171.41;5016630;28;20050;-70
2023/05/12 08:23:23;;;;;;;13.35;3.47;;;;;;;13.46;67.63;101171.16;5015318;28;20045;-71
2023/05/12 08:25:50;;;;;;;9.27;3.00;;;;;;;13.53;67.69;101177.88;5013690;28;20050;-73
2023/05/12 08:28:17;;;;;;;9.63;3.15;;;;;;;13.41;68.70;101172.13;5015281;28;20042;-70
2023/05/12 08:30:47;;;;;;;10.27;3.00;;;;;;;13.53;68.54;101177.03;5015415;28;20409;-71
2023/05/12 08:33:15;;;;;;;13.27;3.38;;;;;;;13.42;68.95;101184.81;4998491;28;20042;-70
2023/05/12 08:35:42;;;;;;;13.55;3.35;;;;;;;13.31;69.52;101179.91;4998709;28;20057;-70
2023/05/12 08:38:09;;;;;;;14.95;3.60;;;;;;;13.04;70.78;101182.91;5005806;28;20493;-70
2023/05/12 08:40:46;;;;;;;10.30;3.28;;;;;;;13.15;71.52;101187.00;5015307;28;20057;-71
2023/05/12 08:43:24;;;;;;;11.68;3.40;;;;;;;12.95;72.37;101196.66;5014077;28;20057;-70
2023/05/12 08:45:57;;;;;;;10.05;3.63;;;;;;;12.71;73.76;101190.66;5005527;28;20563;-74
2023/05/12 08:48:28;;;;;;;12.35;3.50;;;;;;;12.78;74.12;101193.78;5011335;28;20042;-74
2023/05/12 08:50:56;;;;;;;9.93;3.40;;;;;;;12.94;74.61;101181.19;5014235;28;20061;-71
2023/05/12 08:53:24;;;;;;;11.75;3.53;;;;;;;13.10;73.45;101190.75;5008228;28;20068;-72
2023/05/12 08:55:52;;;;;;;11.60;4.50;;;;;;;12.95;75.47;101185.59;5019972;28;20053;-72
2023/05/12 08:58:40;;;;;;;14.27;4.85;;;;;;;13.13;75.94;101190.09;5000145;28;20058;-75
2023/05/12 09:01:10;;;;;;;15.00;3.85;;;;;;;13.27;76.37;101192.75;4997239;28;20134;-72
2023/05/12 09:03:38;;;;;;;12.20;4.20;;;;;;;13.32;77.15;101195.38;5013483;28;20465;-70
2023/05/12 09:06:05;;;;;;;12.82;4.30;;;;;;;13.20;77.66;101209.00;4997957;28;20425;-72
2023/05/12 09:08:33;;;;;;;13.55;4.95;;;;;;;12.75;79.73;101202.72;5012944;28;20065;-71
2023/05/12 09:11:01;;;;;;;16.17;5.10;;;;;;;12.72;80.83;101200.59;5015487;28;20042;-73
2023/05/12 09:13:36;;;;;;;12.50;4.88;;;;;;;12.95;81.79;101207.72;5015191;28;20050;-72
2023/05/12 09:16:06;;;;;;;16.58;5.50;;;;;;;13.20;80.79;101218.13;4988233;28;20053;-70
2023/05/12 09:18:49;;;;;;;;;;;;;;;13.29;80.46;101204.31;4997829;28;20045;-71
2023/05/12 09:21:17;;;;;;;14.65;6.10;;;;;;;12.73;83.96;101207.75;5015502;28;19925;-71
2023/05/12 09:24:10;;;;;;;14.40;6.85;;;;;;;12.84;85.36;101197.22;5014484;28;20071;-71
2023/05/12 09:26:49;;;;;;;14.85;7.80;;;;;;;12.88;86.06;101212.88;4986557;28;20061;-71
2023/05/12 09:29:16;;;;;;;18.33;8.18;;;;;;;12.42;88.41;101210.47;5013292;28;20453;-71
2023/05/12 09:32:00;;;;;;;14.85;8.23;;;;;;;12.42;90.12;101202.19;5013886;28;20053;-72
2023/05/12 09:34:35;;;;;;;17.17;9.52;;;;;;;12.34;91.64;101204.88;5019146;28;20057;-72
2023/05/12 09:37:05;;;;;;;17.67;9.48;;;;;;;12.36;91.82;101202.63;5013755;28;20061;-73
2023/05/12 09:39:33;;;;;;;22.30;9.98;;;;;;;12.28;92.89;101201.41;5013823;28;20052;-71
2023/05/12 09:42:03;;;;;;;;;;;;;;;12.30;94.41;101209.38;5012029;28;20057;-69
2023/05/12 09:44:30;;;;;;;18.25;10.38;;;;;;;12.24;95.81;101200.41;5014156;28;19925;-71
2023/05/12 09:47:06;;;;;;;19.30;11.18;;;;;;;12.47;95.63;101201.22;5002003;28;20057;-71
2023/05/12 09:49:33;;;;;;;21.35;10.95;;;;;;;12.51;95.38;101196.72;5014845;28;20666;-71
2023/05/12 09:52:03;;;;;;;21.00;11.40;;;;;;;12.86;94.49;101203.25;5012693;28;20041;-71
2023/05/12 09:54:32;;;;;;;22.95;11.98;;;;;;;12.69;95.31;101206.75;5004121;28;20049;-69
2023/05/12 09:57:03;;;;;;;20.98;11.77;;;;;;;12.76;96.35;101201.56;5012615;28;20064;-69
2023/05/12 09:59:33;;;;;;;23.75;10.60;;;;;;;13.08;95.00;101204.06;5013745;28;20109;-70
2023/05/12 10:02:03;;;;;;;16.83;9.60;;;;;;;12.96;92.98;101206.59;5028214;28;20561;-72
2023/05/12 10:04:40;;;;;;;;;;;;;;;12.99;93.54;101203.16;4967020;28;20313;-71
2023/05/12 10:07:09;;;;;;;15.15;7.80;;;;;;;12.92;92.57;101205.56;5008950;28;19922;-71
2023/05/12 10:09:41;;;;;;;16.25;9.05;;;;;;;12.95;94.04;101206.91;4990651;28;20042;-70
2023/05/12 10:12:11;;;;;;;14.73;9.30;;;;;;;12.93;94.11;101201.69;4996308;28;20054;-71
2023/05/12 10:14:39;;;;;;;18.20;9.40;;;;;;;13.09;93.81;101204.88;5012682;28;20502;-70
2023/05/12 10:17:08;;;;;;;13.98;7.30;;;;;;;12.87;93.56;101197.41;4996619;28;20050;-71
2023/05/12 10:19:37;;;;;;;15.13;8.05;;;;;;;12.72;92.76;101202.53;5015293;28;20046;-71
2023/05/12 10:22:09;;;;;;;16.15;8.13;;;;;;;12.74;94.57;101200.28;5012044;28;20049;-71
2023/05/12 10:24:38;;;;;;;13.13;7.57;;;;;;;12.95;93.11;101201.38;5013229;28;20069;-70
2023/05/12 10:27:06;;;;;;;14.20;6.97;;;;;;;12.75;92.59;101201.88;5013315;28;20054;-70
2023/05/12 10:29:34;;;;;;;11.02;6.07;;;;;;;12.87;91.74;101199.34;5013185;28;20984;-70
2023/05/12 10:32:01;;;;;;;12.50;5.53;;;;;;;12.81;89.27;101207.00;5011276;28;20065;-70
2023/05/12 10:34:32;;;;;;;12.10;5.35;;;;;;;12.83;90.37;101201.94;5012667;28;20054;-72
2023/05/12 10:37:05;;;;;;;11.40;5.40;;;;;;;12.85;89.82;101196.91;5013386;28;20061;-73
2023/05/12 10:39:33;;;;;;;10.88;5.82;;;;;;;12.79;88.69;101189.91;4993007;28;20046;-71
2023/05/12 10:42:05;;;;;;;15.77;8.48;;;;;;;12.88;88.67;101190.78;5017969;28;20065;-71
2023/05/12 10:44:32;;;;;;;14.02;6.35;;;;;;;13.04;86.61;101196.75;4996214;28;20065;-72
2023/05/12 10:47:00;;;;;;;10.60;5.07;;;;;;;13.07;84.62;101194.16;4995783;28;20054;-72
2023/05/12 10:49:38;;;;;;;8.65;4.80;;;;;;;13.02;86.29;101190.69;5013114;28;20058;-71
2023/05/12 10:52:06;;;;;;;10.95;5.25;;;;;;;13.26;85.44;101191.13;5014797;28;20058;-71
2023/05/12 10:54:39;;;;;;;11.55;5.32;;;;;;;13.60;84.16;101190.44;5020562;28;20369;-71
2023/05/12 10:57:20;;;;;;;12.40;5.65;;;;;;;13.31;85.45;101185.44;4995703;28;20050;-71
2023/05/12 10:59:49;;;;;;;9.90;5.72;;;;;;;13.53;86.24;101185.34;4996213;28;20053;-69
2023/05/12 11:02:19;;;;;;;;;;;;;;;13.50;85.96;101184.06;5009482;28;20049;-69
2023/05/12 11:04:50;;;;;;;9.32;5.25;;;;;;;13.66;82.74;101183.59;4977295;28;19922;-68
2023/05/12 11:07:22;;;;;;;18.63;6.90;;;;;;;13.58;82.69;101186.00;5012956;28;20559;-70
2023/05/12 11:09:51;;;;;;;13.90;5.03;;;;;;;13.69;82.71;101185.72;4992949;28;20054;-69
2023/05/12 11:12:32;;;;;;;8.65;4.40;;;;;;;14.01;80.21;101182.50;5013687;28;20585;-70
2023/05/12 11:15:01;;;;;;;9.73;5.13;;;;;;;14.11;79.03;101171.09;5011435;28;20049;-70
2023/05/12 11:17:28;;;;;;;7.68;4.10;;;;;;;14.28;76.11;101174.72;4993517;28;20041;-70
2023/05/12 11:19:55;;;;;;;7.28;4.32;;;;;;;14.17;76.90;101170.63;5000373;28;20050;-67
2023/05/12 11:22:23;;;;;;;10.30;4.68;;;;;;;14.38;76.25;101174.38;5012281;28;20504;-70
2023/05/12 11:24:51;;;;;;;11.68;5.28;;;;;;;14.53;76.02;101168.34;4993942;28;20058;-70
2023/05/12 11:27:21;;;;;;;12.82;5.45;;;;;;;14.55;76.03;101170.78;5012948;28;20547;-70